createdAt,value
2018-05-26T00:01:02.416Z,7.77
2018-05-26T00:03:47.503Z,9.50
2018-05-26T00:06:31.740Z,8.67
2018-05-26T00:09:15.978Z,7.80
2018-05-26T00:12:00.969Z,8.20
2018-05-26T00:14:45.235Z,8.13
2018-05-26T00:17:29.460Z,8.37
2018-05-26T00:20:14.465Z,8.00
2018-05-26T00:23:03.557Z,8.73
2018-05-26T00:25:47.801Z,8.07
2018-05-26T00:28:32.028Z,7.70
2018-05-26T00:31:16.244Z,8.63
2018-05-26T00:34:01.248Z,8.60
2018-05-26T00:36:45.507Z,8.87
2018-05-26T00:39:29.757Z,8.23
2018-05-26T00:42:13.986Z,9.90
2018-05-26T00:44:58.963Z,8.50
2018-05-26T00:47:43.201Z,8.20
2018-05-26T00:50:28.179Z,8.00
2018-05-26T00:53:12.433Z,8.13
2018-05-26T00:55:57.430Z,9.03
2018-05-26T00:58:41.681Z,7.93
2018-05-26T01:01:25.891Z,8.73
2018-05-26T01:04:10.897Z,10.00
2018-05-26T01:06:55.948Z,9.80
2018-05-26T01:09:40.966Z,9.07
2018-05-26T01:12:25.206Z,8.87
2018-05-26T01:15:09.429Z,10.20
2018-05-26T01:17:53.689Z,9.07
2018-05-26T01:20:37.909Z,9.67
2018-05-26T01:23:22.168Z,10.20
2018-05-26T01:26:07.163Z,10.37
2018-05-26T01:28:51.392Z,11.70
2018-05-26T01:31:36.422Z,10.97
2018-05-26T01:34:21.450Z,10.77
2018-05-26T01:37:05.666Z,10.47
2018-05-26T01:39:49.942Z,9.70
2018-05-26T01:42:34.172Z,10.90
2018-05-26T01:45:18.417Z,11.50
2018-05-26T01:48:02.638Z,10.87
2018-05-26T01:50:46.904Z,10.83
2018-05-26T01:53:31.122Z,11.63
2018-05-26T01:56:15.378Z,10.70
2018-05-26T01:58:59.590Z,11.47
2018-05-26T02:01:43.814Z,10.13
2018-05-26T02:07:07.686Z,10.60
2018-05-26T02:09:52.212Z,11.40
2018-05-26T02:12:37.202Z,11.60
2018-05-26T02:15:21.468Z,11.53
2018-05-26T02:18:05.698Z,10.53
2018-05-26T02:20:50.712Z,11.37
2018-05-26T02:23:34.955Z,11.07
2018-05-26T02:26:19.185Z,10.23
2018-05-26T02:29:03.429Z,10.90
2018-05-26T02:31:48.430Z,11.13
2018-05-26T02:34:32.649Z,11.07
2018-05-26T02:37:16.887Z,9.60
2018-05-26T02:40:01.106Z,11.23
2018-05-26T02:42:45.369Z,12.17
2018-05-26T02:45:29.607Z,12.33
2018-05-26T02:48:13.840Z,12.10
2018-05-26T02:50:58.797Z,11.77
2018-05-26T02:53:43.021Z,11.30
2018-05-26T02:56:28.026Z,12.50
2018-05-26T02:59:12.252Z,11.10
2018-05-26T03:01:57.266Z,12.77
2018-05-26T03:04:46.985Z,11.10
2018-05-26T03:07:36.736Z,11.27
2018-05-26T03:10:26.453Z,11.23
2018-05-26T03:13:16.931Z,11.73
2018-05-26T03:16:08.511Z,10.30
2018-05-26T03:18:52.768Z,10.70
2018-05-26T03:21:36.992Z,11.00
2018-05-26T03:24:21.990Z,10.93
2018-05-26T03:27:06.220Z,11.10
2018-05-26T03:29:51.225Z,11.60
2018-05-26T03:32:35.472Z,11.57
2018-05-26T03:35:19.776Z,11.37
2018-05-26T03:38:04.014Z,9.33
2018-05-26T03:40:48.255Z,11.10
2018-05-26T03:43:32.474Z,10.43
2018-05-26T03:46:16.732Z,12.00
2018-05-26T03:49:00.971Z,12.13
2018-05-26T03:51:45.221Z,11.57
2018-05-26T03:54:47.041Z,10.57
2018-05-26T03:57:48.973Z,10.93
2018-05-26T04:00:33.186Z,11.97
2018-05-26T04:03:18.202Z,11.07
2018-05-26T04:06:03.341Z,11.17
2018-05-26T04:08:47.501Z,11.63
2018-05-26T04:11:31.748Z,10.57
2018-05-26T04:14:16.752Z,10.97
2018-05-26T04:17:01.040Z,11.10
2018-05-26T04:19:45.277Z,10.77
2018-05-26T04:22:29.525Z,11.63
2018-05-26T04:25:13.747Z,11.13
2018-05-26T04:27:57.997Z,9.87
2018-05-26T04:30:42.241Z,11.10
2018-05-26T04:33:26.462Z,11.97
2018-05-26T04:36:10.701Z,11.23
2018-05-26T04:38:54.946Z,11.87
2018-05-26T04:41:39.194Z,13.07
2018-05-26T04:44:23.413Z,12.40
2018-05-26T04:47:07.687Z,14.13
2018-05-26T04:49:51.933Z,12.83
2018-05-26T04:52:36.953Z,12.93
2018-05-26T04:55:21.999Z,14.10
2018-05-26T04:58:06.234Z,13.37
2018-05-26T05:00:50.501Z,14.00
2018-05-26T05:03:34.739Z,14.23
2018-05-26T05:06:18.998Z,13.43
2018-05-26T05:09:03.219Z,13.90
2018-05-26T05:11:47.472Z,12.93
2018-05-26T05:14:31.710Z,14.43
2018-05-26T05:17:15.935Z,13.60
2018-05-26T05:20:00.173Z,13.37
2018-05-26T05:22:44.418Z,13.80
2018-05-26T05:25:28.668Z,13.57
2018-05-26T05:28:12.887Z,13.47
2018-05-26T05:30:57.152Z,12.77
2018-05-26T05:33:41.360Z,13.17
2018-05-26T05:36:26.396Z,12.53
2018-05-26T05:39:11.344Z,12.07
2018-05-26T05:41:55.622Z,11.37
2018-05-26T05:44:39.836Z,11.70
2018-05-26T05:47:24.097Z,11.90
2018-05-26T05:50:08.351Z,12.00
2018-05-26T05:52:52.589Z,11.10
2018-05-26T05:55:36.837Z,9.73
2018-05-26T05:58:21.834Z,10.27
2018-05-26T06:01:06.069Z,8.90
2018-05-26T06:03:50.305Z,9.50
2018-05-26T06:06:35.297Z,10.90
2018-05-26T06:09:19.514Z,9.17
2018-05-26T06:12:04.516Z,9.07
2018-05-26T06:14:48.789Z,9.27
2018-05-26T06:17:33.759Z,8.40
2018-05-26T06:20:17.983Z,8.77
2018-05-26T06:23:02.228Z,7.87
2018-05-26T06:25:47.301Z,8.50
2018-05-26T06:28:32.286Z,8.70
2018-05-26T06:31:16.536Z,8.50
2018-05-26T06:34:00.849Z,7.13
2018-05-26T06:36:45.066Z,8.10
2018-05-26T06:39:29.321Z,8.57
2018-05-26T06:42:13.556Z,8.20
2018-05-26T06:44:57.794Z,7.70
2018-05-26T06:47:42.014Z,7.97
2018-05-26T06:50:26.244Z,7.97
2018-05-26T06:53:10.506Z,9.57
2018-05-26T06:55:54.952Z,7.03
2018-05-26T06:58:39.206Z,7.07
2018-05-26T07:01:23.417Z,7.50
2018-05-26T07:04:07.676Z,7.90
2018-05-26T07:06:51.901Z,7.67
2018-05-26T07:09:36.148Z,6.77
2018-05-26T07:12:20.405Z,5.87
2018-05-26T07:15:05.440Z,6.03
2018-05-26T07:17:49.642Z,5.90
2018-05-26T07:20:34.676Z,6.07
2018-05-26T07:23:18.916Z,6.43
2018-05-26T07:26:03.172Z,6.20
2018-05-26T07:28:47.404Z,5.53
2018-05-26T07:31:31.643Z,5.70
2018-05-26T07:34:15.872Z,5.60
2018-05-26T07:37:00.892Z,5.20
2018-05-26T07:39:45.280Z,5.57
2018-05-26T07:42:29.486Z,5.70
2018-05-26T07:45:13.735Z,5.20
2018-05-26T07:47:57.966Z,4.70
2018-05-26T07:50:42.228Z,4.80
2018-05-26T07:53:26.483Z,5.33
2018-05-26T07:56:10.714Z,4.63
2018-05-26T07:58:55.719Z,4.80
2018-05-26T08:01:40.101Z,4.40
2018-05-26T08:04:25.167Z,5.50
2018-05-26T08:07:09.391Z,4.47
2018-05-26T08:09:53.625Z,5.07
2018-05-26T08:12:38.636Z,4.97
2018-05-26T08:15:22.905Z,4.70
2018-05-26T08:18:07.176Z,4.87
2018-05-26T08:20:51.438Z,4.90
2018-05-26T08:23:35.658Z,4.67
2018-05-26T08:26:19.916Z,4.20
2018-05-26T08:29:04.131Z,4.70
2018-05-26T08:31:48.390Z,6.10
2018-05-26T08:34:32.633Z,5.67
2018-05-26T08:37:16.874Z,4.40
2018-05-26T08:40:01.092Z,4.77
2018-05-26T08:42:45.341Z,4.00
2018-05-26T08:45:29.631Z,4.13
2018-05-26T08:48:13.835Z,5.53
2018-05-26T08:50:58.073Z,4.80
2018-05-26T08:53:42.357Z,5.83
2018-05-26T08:56:26.563Z,4.57
2018-05-26T08:59:10.782Z,4.87
2018-05-26T09:01:55.791Z,4.63
2018-05-26T09:04:40.036Z,4.70
2018-05-26T09:07:24.297Z,6.23
2018-05-26T09:10:08.554Z,4.60
2018-05-26T09:12:52.778Z,4.20
2018-05-26T09:15:37.009Z,4.97
2018-05-26T09:18:22.378Z,4.40
2018-05-26T09:21:25.760Z,5.87
2018-05-26T09:24:12.474Z,4.73
2018-05-26T09:26:57.202Z,3.73
2018-05-26T09:29:41.504Z,4.53
2018-05-26T09:32:25.734Z,4.40
2018-05-26T09:35:09.963Z,4.43
2018-05-26T09:37:54.206Z,5.30
2018-05-26T09:40:38.424Z,4.23
2018-05-26T09:43:23.427Z,3.63
2018-05-26T09:46:07.657Z,3.90
2018-05-26T09:48:52.646Z,3.73
2018-05-26T09:51:36.900Z,3.73
2018-05-26T09:54:21.166Z,4.00
2018-05-26T09:57:05.389Z,4.03
2018-05-26T09:59:50.395Z,3.57
2018-05-26T10:02:34.616Z,3.63
2018-05-26T10:05:18.873Z,3.70
2018-05-26T10:08:03.090Z,3.63
2018-05-26T10:10:47.335Z,3.37
2018-05-26T10:13:31.586Z,3.90
2018-05-26T10:16:15.830Z,3.47
2018-05-26T10:19:00.068Z,3.50
2018-05-26T10:21:44.316Z,3.70
2018-05-26T10:24:28.556Z,3.20
2018-05-26T10:27:12.786Z,3.57
2018-05-26T10:29:57.057Z,3.13
2018-05-26T10:32:41.277Z,4.07
2018-05-26T10:35:25.606Z,4.17
2018-05-26T10:38:10.570Z,3.50
2018-05-26T10:40:54.779Z,2.90
2018-05-26T10:43:38.989Z,5.07
2018-05-26T10:46:26.669Z,3.23
2018-05-26T10:49:10.883Z,2.63
2018-05-26T10:51:55.131Z,3.33
2018-05-26T10:54:39.364Z,2.80
2018-05-26T10:57:23.620Z,2.87
2018-05-26T11:00:07.852Z,3.33
2018-05-26T11:02:52.201Z,3.77
2018-05-26T11:05:36.450Z,3.03
2018-05-26T11:08:20.692Z,3.30
2018-05-26T11:11:04.960Z,2.97
2018-05-26T11:13:49.198Z,3.00
2018-05-26T11:16:33.469Z,3.50
2018-05-26T11:19:17.704Z,3.20
2018-05-26T11:22:02.722Z,4.33
2018-05-26T11:24:47.009Z,5.13
2018-05-26T11:27:31.206Z,3.47
2018-05-26T11:30:15.453Z,3.77
2018-05-26T11:32:59.672Z,4.40
2018-05-26T11:35:43.941Z,3.77
2018-05-26T11:38:28.191Z,3.50
2018-05-26T11:41:12.408Z,4.97
2018-05-26T11:43:57.429Z,5.20
2018-05-26T11:46:41.652Z,3.50
2018-05-26T11:49:25.937Z,3.90
2018-05-26T11:52:10.216Z,5.40
2018-05-26T11:54:54.447Z,5.17
2018-05-26T11:57:38.689Z,3.57
2018-05-26T12:00:23.163Z,3.83
2018-05-26T12:03:07.379Z,4.00
2018-05-26T12:05:51.602Z,4.33
2018-05-26T12:08:35.830Z,4.83
2018-05-26T12:11:20.061Z,4.20
2018-05-26T12:14:04.326Z,3.50
2018-05-26T12:16:48.560Z,3.50
2018-05-26T12:19:32.809Z,4.63
2018-05-26T12:22:17.047Z,3.43
2018-05-26T12:25:02.062Z,3.50
2018-05-26T12:27:46.290Z,5.37
2018-05-26T12:30:30.557Z,3.83
2018-05-26T12:33:14.776Z,4.13
2018-05-26T12:35:59.017Z,3.47
2018-05-26T12:38:43.258Z,3.77
2018-05-26T12:41:28.253Z,3.80
2018-05-26T12:44:12.490Z,4.67
2018-05-26T12:46:57.485Z,4.17
2018-05-26T12:49:41.693Z,4.10
2018-05-26T12:52:26.717Z,3.90
2018-05-26T12:55:10.942Z,3.47
2018-05-26T12:57:55.161Z,3.90
2018-05-26T13:00:39.481Z,4.23
2018-05-26T13:03:23.687Z,3.63
2018-05-26T13:06:08.781Z,4.13
2018-05-26T13:08:52.955Z,3.50
2018-05-26T13:11:37.186Z,4.43
2018-05-26T13:14:21.457Z,3.80
2018-05-26T13:17:05.668Z,5.03
2018-05-26T13:19:50.661Z,3.87
2018-05-26T13:22:34.878Z,2.83
2018-05-26T13:25:19.127Z,3.50
2018-05-26T13:28:03.333Z,3.37
2018-05-26T13:30:47.591Z,3.50
2018-05-26T13:33:31.819Z,3.13
2018-05-26T13:36:16.080Z,5.73
2018-05-26T13:39:00.301Z,2.90
2018-05-26T13:41:45.334Z,3.70
2018-05-26T13:44:29.568Z,3.87
2018-05-26T13:47:13.805Z,3.23
2018-05-26T13:49:58.047Z,4.30
2018-05-26T13:52:43.042Z,5.03
2018-05-26T13:55:27.277Z,3.83
2018-05-26T13:58:11.528Z,4.80
2018-05-26T14:00:55.769Z,3.57
2018-05-26T14:03:40.742Z,3.00
2018-05-26T14:06:25.076Z,3.30
2018-05-26T14:09:10.081Z,2.70
2018-05-26T14:11:54.407Z,3.00
2018-05-26T14:14:38.901Z,4.20
2018-05-26T14:17:23.121Z,4.03
2018-05-26T14:20:08.129Z,4.00
2018-05-26T14:22:52.375Z,3.77
2018-05-26T14:25:36.612Z,3.03
2018-05-26T14:28:20.997Z,3.30
2018-05-26T14:31:05.224Z,3.40
2018-05-26T14:33:49.481Z,3.20
2018-05-26T14:36:33.958Z,3.53
2018-05-26T14:39:18.211Z,2.87
2018-05-26T14:42:02.513Z,4.77
2018-05-26T14:44:46.874Z,3.53
2018-05-26T14:47:31.100Z,2.90
2018-05-26T14:50:15.351Z,5.13
2018-05-26T14:52:59.598Z,2.97
2018-05-26T14:55:43.837Z,2.93
2018-05-26T14:58:28.071Z,3.17
2018-05-26T15:01:12.311Z,3.17
2018-05-26T15:03:56.531Z,2.87
2018-05-26T15:06:40.772Z,3.80
2018-05-26T15:09:25.003Z,4.40
2018-05-26T15:12:09.236Z,3.10
2018-05-26T15:14:53.453Z,3.60
2018-05-26T15:17:38.452Z,3.10
2018-05-26T15:20:22.684Z,3.17
2018-05-26T15:23:07.714Z,4.87
2018-05-26T15:25:51.938Z,4.67
2018-05-26T15:28:36.155Z,4.17
2018-05-26T15:31:21.175Z,3.07
2018-05-26T15:34:05.409Z,3.93
2018-05-26T15:36:49.644Z,4.93
2018-05-26T15:39:33.868Z,3.00
2018-05-26T15:42:18.209Z,3.10
2018-05-26T15:45:02.382Z,3.30
2018-05-26T15:47:47.387Z,3.17
2018-05-26T15:50:31.632Z,2.80
2018-05-26T15:53:15.884Z,4.83
2018-05-26T15:56:00.117Z,3.03
2018-05-26T15:58:45.109Z,3.20
2018-05-26T16:01:29.344Z,3.87
2018-05-26T16:04:14.375Z,3.50
2018-05-26T16:06:58.582Z,3.07
2018-05-26T16:09:42.837Z,3.37
2018-05-26T16:12:27.051Z,3.00
2018-05-26T16:15:11.309Z,3.83
2018-05-26T16:17:55.554Z,4.90
2018-05-26T16:20:39.778Z,5.50
2018-05-26T16:23:24.035Z,3.27
2018-05-26T16:26:08.267Z,3.30
2018-05-26T16:28:52.554Z,2.90
2018-05-26T16:31:36.812Z,3.20
2018-05-26T16:34:21.042Z,3.20
2018-05-26T16:37:05.270Z,3.47
2018-05-26T16:39:49.525Z,3.10
2018-05-26T16:42:33.734Z,3.33
2018-05-26T16:45:18.770Z,3.50
2018-05-26T16:48:02.990Z,3.33
2018-05-26T16:50:47.221Z,3.50
2018-05-26T16:53:32.247Z,3.83
2018-05-26T16:56:16.446Z,4.33
2018-05-26T16:59:01.460Z,4.53
2018-05-26T17:01:45.711Z,4.27
2018-05-26T17:04:29.925Z,3.80
2018-05-26T17:07:14.932Z,6.90
2018-05-26T17:09:59.151Z,3.50
2018-05-26T17:12:43.398Z,3.70
2018-05-26T17:15:28.377Z,4.87
2018-05-26T17:18:12.643Z,3.93
2018-05-26T17:20:56.849Z,3.87
2018-05-26T17:23:41.080Z,3.87
2018-05-26T17:26:25.344Z,3.67
2018-05-26T17:29:09.561Z,4.50
2018-05-26T17:31:53.803Z,4.47
2018-05-26T17:34:38.032Z,3.60
2018-05-26T17:37:23.018Z,3.73
2018-05-26T17:40:07.319Z,3.50
2018-05-26T17:42:51.550Z,3.47
2018-05-26T17:45:35.785Z,4.17
2018-05-26T17:48:20.020Z,3.67
2018-05-26T17:51:05.035Z,5.73
2018-05-26T17:53:49.244Z,3.80
2018-05-26T17:56:34.253Z,3.70
2018-05-26T17:59:18.493Z,4.40
2018-05-26T18:02:02.714Z,4.57
2018-05-26T18:04:47.717Z,3.60
2018-05-26T18:07:32.758Z,3.80
2018-05-26T18:10:17.780Z,4.13
2018-05-26T18:13:01.981Z,4.03
2018-05-26T18:15:46.989Z,3.93
2018-05-26T18:18:31.221Z,4.97
2018-05-26T18:21:15.465Z,3.83
2018-05-26T18:26:40.793Z,3.70
2018-05-26T18:29:25.046Z,3.97
2018-05-26T18:32:10.020Z,4.10
2018-05-26T18:34:54.286Z,4.03
2018-05-26T18:37:38.498Z,4.40
2018-05-26T18:40:22.723Z,4.13
2018-05-26T18:43:06.934Z,4.47
2018-05-26T18:45:51.165Z,4.47
2018-05-26T18:48:36.203Z,4.13
2018-05-26T18:51:20.412Z,4.37
2018-05-26T18:54:04.645Z,3.90
2018-05-26T18:56:49.654Z,4.53
2018-05-26T18:59:33.892Z,3.90
2018-05-26T19:02:18.153Z,5.40
2018-05-26T19:05:02.399Z,3.73
2018-05-26T19:07:46.629Z,3.90
2018-05-26T19:10:31.630Z,3.70
2018-05-26T19:13:15.876Z,4.97
2018-05-26T19:16:00.109Z,4.40
2018-05-26T19:18:45.122Z,4.43
2018-05-26T19:21:29.446Z,4.37
2018-05-26T19:24:13.681Z,5.17
2018-05-26T19:26:58.673Z,3.67
2018-05-26T19:29:42.882Z,4.83
2018-05-26T19:32:27.149Z,6.00
2018-05-26T19:35:12.141Z,4.50
2018-05-26T19:37:56.388Z,4.73
2018-05-26T19:40:41.372Z,4.80
2018-05-26T19:43:26.884Z,4.60
2018-05-26T19:46:11.140Z,6.47
2018-05-26T19:48:55.397Z,6.47
2018-05-26T19:51:39.617Z,6.10
2018-05-26T19:54:23.867Z,4.30
2018-05-26T19:57:08.102Z,5.20
2018-05-26T19:59:52.381Z,4.47
2018-05-26T20:02:36.628Z,4.50
2018-05-26T20:05:20.929Z,5.07
2018-05-26T20:08:05.402Z,5.67
2018-05-26T20:10:49.650Z,5.97
2018-05-26T20:13:33.863Z,4.40
2018-05-26T20:16:18.113Z,5.60
2018-05-26T20:19:02.346Z,4.80
2018-05-26T20:21:47.453Z,4.97
2018-05-26T20:24:31.781Z,4.93
2018-05-26T20:27:16.033Z,4.67
2018-05-26T20:30:00.281Z,4.90
2018-05-26T20:32:44.655Z,6.50
2018-05-26T20:35:28.890Z,6.37
2018-05-26T20:38:13.132Z,5.00
2018-05-26T20:40:57.417Z,5.13
2018-05-26T20:43:41.654Z,5.00
2018-05-26T20:46:25.900Z,5.20
2018-05-26T20:49:10.146Z,5.17
2018-05-26T20:51:54.394Z,5.47
2018-05-26T20:54:38.621Z,4.53
2018-05-26T20:57:22.843Z,7.23
2018-05-26T21:00:07.088Z,4.77
2018-05-26T21:02:51.348Z,4.83
2018-05-26T21:05:35.638Z,5.07
2018-05-26T21:08:20.619Z,7.17
2018-05-26T21:11:05.662Z,4.70
2018-05-26T21:13:49.902Z,5.80
2018-05-26T21:16:34.155Z,5.23
2018-05-26T21:19:18.364Z,5.90
2018-05-26T21:22:02.591Z,6.23
2018-05-26T21:24:47.626Z,5.37
2018-05-26T21:27:31.871Z,7.27
2018-05-26T21:30:16.109Z,4.90
2018-05-26T21:33:00.346Z,6.13
2018-05-26T21:35:44.585Z,9.23
2018-05-26T21:38:29.581Z,5.73
2018-05-26T21:41:13.821Z,5.37
2018-05-26T21:43:58.038Z,5.40
2018-05-26T21:46:43.062Z,7.03
2018-05-26T21:49:27.301Z,5.90
2018-05-26T21:52:11.529Z,6.90
2018-05-26T21:54:56.540Z,5.30
2018-05-26T21:57:40.794Z,5.50
2018-05-26T22:00:25.025Z,5.27
2018-05-26T22:03:09.257Z,6.63
2018-05-26T22:05:54.251Z,7.43
2018-05-26T22:08:38.457Z,6.63
2018-05-26T22:11:22.685Z,6.33
2018-05-26T22:14:06.915Z,6.10
2018-05-26T22:16:51.128Z,5.70
2018-05-26T22:19:36.164Z,5.90
2018-05-26T22:22:20.429Z,7.23
2018-05-26T22:25:04.638Z,6.13
2018-05-26T22:27:48.880Z,6.07
2018-05-26T22:30:33.119Z,5.63
2018-05-26T22:33:18.128Z,8.80
2018-05-26T22:36:02.356Z,7.70
2018-05-26T22:38:46.599Z,6.67
2018-05-26T22:41:30.843Z,6.20
2018-05-26T22:44:15.838Z,6.00
2018-05-26T22:47:00.073Z,6.23
2018-05-26T22:49:44.325Z,6.67
2018-05-26T22:52:29.342Z,5.67
2018-05-26T22:55:13.584Z,6.03
2018-05-26T22:57:57.806Z,8.27
2018-05-26T23:00:42.053Z,6.27
2018-05-26T23:03:26.274Z,6.57
2018-05-26T23:06:10.515Z,6.33
2018-05-26T23:08:54.746Z,7.23
2018-05-26T23:11:38.981Z,6.80
2018-05-26T23:14:23.212Z,9.30
2018-05-26T23:17:08.243Z,6.47
2018-05-26T23:19:52.482Z,6.50
2018-05-26T23:22:36.733Z,6.60
2018-05-26T23:25:20.955Z,6.87
2018-05-26T23:28:05.205Z,7.20
2018-05-26T23:30:49.431Z,7.00
2018-05-26T23:33:34.439Z,7.50
2018-05-26T23:36:18.673Z,7.50
2018-05-26T23:39:02.925Z,6.93
2018-05-26T23:41:47.134Z,8.30
2018-05-26T23:44:31.390Z,7.00
2018-05-26T23:47:15.665Z,7.83
2018-05-26T23:50:00.665Z,8.17
2018-05-26T23:52:44.897Z,7.47
2018-05-26T23:55:29.912Z,9.47
2018-05-26T23:58:14.162Z,7.53
